createdAt,value
2023-03-28T00:00:39.169Z,0
2023-03-28T00:01:55.324Z,0
2023-03-28T00:03:11.461Z,0
2023-03-28T00:04:27.592Z,0
2023-03-28T00:05:43.721Z,0
2023-03-28T00:06:59.847Z,0
2023-03-28T00:08:16.006Z,0
2023-03-28T00:09:32.134Z,0
2023-03-28T00:10:48.275Z,0
2023-03-28T00:12:04.406Z,0
2023-03-28T00:13:20.540Z,0
2023-03-28T00:14:36.683Z,0
2023-03-28T00:15:52.814Z,0
2023-03-28T00:17:08.954Z,0
2023-03-28T00:18:25.077Z,0
2023-03-28T00:19:41.274Z,0
2023-03-28T00:20:56.490Z,0
2023-03-28T00:22:12.620Z,0
2023-03-28T00:23:28.743Z,0
2023-03-28T00:24:44.872Z,0
2023-03-28T00:26:01.035Z,0
2023-03-28T00:27:17.166Z,0
2023-03-28T00:28:33.295Z,0
2023-03-28T00:29:49.429Z,0
2023-03-28T00:31:05.563Z,0
2023-03-28T00:32:21.701Z,0
2023-03-28T00:33:37.841Z,0
2023-03-28T00:34:53.976Z,0
2023-03-28T00:36:10.105Z,0
2023-03-28T00:37:26.232Z,0
2023-03-28T00:38:42.379Z,0
2023-03-28T00:39:58.519Z,0
2023-03-28T00:41:14.657Z,0
2023-03-28T00:42:30.794Z,0
2023-03-28T00:43:46.926Z,0
2023-03-28T00:45:03.068Z,0
2023-03-28T00:46:19.207Z,0
2023-03-28T00:47:35.333Z,0
2023-03-28T00:48:51.465Z,0
2023-03-28T00:50:07.603Z,0
2023-03-28T00:51:23.740Z,0
2023-03-28T00:52:39.938Z,0
2023-03-28T00:53:55.175Z,0
2023-03-28T00:55:10.389Z,0
2023-03-28T00:56:26.520Z,0
2023-03-28T00:57:42.643Z,0
2023-03-28T00:58:58.787Z,0
2023-03-28T01:00:14.909Z,0
2023-03-28T01:01:31.063Z,0
2023-03-28T01:02:47.197Z,0
2023-03-28T01:04:03.328Z,0
2023-03-28T01:05:19.460Z,0
2023-03-28T01:06:35.594Z,0
2023-03-28T01:07:51.742Z,0
2023-03-28T01:09:07.879Z,0
2023-03-28T01:10:23.999Z,0
2023-03-28T01:11:40.141Z,0
2023-03-28T01:12:56.266Z,0
2023-03-28T01:14:12.431Z,0
2023-03-28T01:15:28.565Z,0
2023-03-28T01:16:44.684Z,0
2023-03-28T01:18:00.820Z,0
2023-03-28T01:19:16.948Z,0
2023-03-28T01:20:33.102Z,0
2023-03-28T01:21:49.232Z,0
2023-03-28T01:23:05.367Z,0
2023-03-28T01:24:21.504Z,0
2023-03-28T01:25:37.631Z,0
2023-03-28T01:26:53.838Z,0
2023-03-28T01:28:09.101Z,0
2023-03-28T01:29:25.285Z,0
2023-03-28T01:30:40.498Z,0
2023-03-28T01:31:56.635Z,0
2023-03-28T01:33:12.756Z,0
2023-03-28T01:34:28.897Z,0
2023-03-28T01:35:45.025Z,0
2023-03-28T01:37:01.185Z,0
2023-03-28T01:38:17.317Z,0
2023-03-28T01:39:33.447Z,0
2023-03-28T01:40:49.578Z,0
2023-03-28T01:42:05.708Z,0
2023-03-28T01:43:21.866Z,0
2023-03-28T01:44:37.991Z,0
2023-03-28T01:45:54.132Z,0
2023-03-28T01:47:10.267Z,0
2023-03-28T01:48:26.381Z,0
2023-03-28T01:49:42.533Z,0
2023-03-28T01:50:58.674Z,0
2023-03-28T01:52:14.801Z,0
2023-03-28T01:53:30.927Z,0
2023-03-28T01:54:47.077Z,0
2023-03-28T01:56:03.221Z,0
2023-03-28T01:57:19.341Z,0
2023-03-28T01:58:35.480Z,0
2023-03-28T01:59:51.614Z,0
2023-03-28T02:01:07.749Z,0
2023-03-28T02:02:23.963Z,0
2023-03-28T02:03:39.204Z,0
2023-03-28T02:04:54.399Z,0
2023-03-28T02:06:10.534Z,0
2023-03-28T02:07:26.684Z,0
2023-03-28T02:08:42.821Z,0
2023-03-28T02:09:58.934Z,0
2023-03-28T02:11:15.087Z,0
2023-03-28T02:12:31.224Z,0
2023-03-28T02:13:47.361Z,0
2023-03-28T02:15:03.481Z,0
2023-03-28T02:16:19.627Z,0
2023-03-28T02:17:35.765Z,0
2023-03-28T02:18:51.907Z,0
2023-03-28T02:20:08.037Z,0
2023-03-28T02:22:40.297Z,0
2023-03-28T02:23:56.439Z,0
2023-03-28T02:25:12.587Z,0
2023-03-28T02:26:28.724Z,0
2023-03-28T02:27:44.855Z,0
2023-03-28T02:29:00.991Z,0
2023-03-28T02:30:17.123Z,0
2023-03-28T02:31:33.265Z,0
2023-03-28T02:32:49.404Z,0
2023-03-28T02:34:05.527Z,0
2023-03-28T02:35:21.666Z,0
2023-03-28T02:36:37.864Z,0
2023-03-28T02:37:53.100Z,0
2023-03-28T02:39:08.295Z,0
2023-03-28T02:40:23.452Z,0
2023-03-28T02:41:39.586Z,0
2023-03-28T02:42:55.723Z,0
2023-03-28T02:44:11.847Z,0
2023-03-28T02:45:27.985Z,0
2023-03-28T02:46:44.133Z,0
2023-03-28T02:48:00.271Z,0
2023-03-28T02:49:16.390Z,0
2023-03-28T02:50:32.519Z,0
2023-03-28T02:51:48.660Z,0
2023-03-28T02:53:04.812Z,0
2023-03-28T02:54:20.940Z,0
2023-03-28T02:55:37.070Z,0
2023-03-28T02:56:53.218Z,0
2023-03-28T02:58:09.343Z,0
2023-03-28T02:59:25.494Z,0
2023-03-28T03:00:41.619Z,0
2023-03-28T03:01:57.761Z,0
2023-03-28T03:03:13.886Z,0
2023-03-28T03:04:30.025Z,0
2023-03-28T03:05:46.174Z,0
2023-03-28T03:07:02.294Z,0
2023-03-28T03:08:18.441Z,0
2023-03-28T03:09:34.572Z,0
2023-03-28T03:10:50.708Z,0
2023-03-28T03:12:06.844Z,0
2023-03-28T03:13:22.985Z,0
2023-03-28T03:14:39.115Z,0
2023-03-28T03:15:55.246Z,0
2023-03-28T03:17:11.380Z,0
2023-03-28T03:18:27.535Z,0
2023-03-28T03:19:43.668Z,0
2023-03-28T03:20:59.797Z,0
2023-03-28T03:22:15.939Z,0
2023-03-28T03:23:32.070Z,0
2023-03-28T03:24:48.208Z,0
2023-03-28T03:26:04.350Z,0
2023-03-28T03:27:20.540Z,0
2023-03-28T03:28:35.769Z,0
2023-03-28T03:29:51.043Z,0
2023-03-28T03:31:06.274Z,0
2023-03-28T03:32:21.493Z,0
2023-03-28T03:33:37.617Z,0
2023-03-28T03:34:53.754Z,0
2023-03-28T03:36:09.887Z,0
2023-03-28T03:37:26.021Z,0
2023-03-28T03:38:42.178Z,0
2023-03-28T03:39:58.296Z,0
2023-03-28T03:41:14.432Z,0
2023-03-28T03:42:30.560Z,0
2023-03-28T03:43:46.697Z,0
2023-03-28T03:45:02.845Z,0
2023-03-28T03:46:18.987Z,0
2023-03-28T03:47:35.114Z,0
2023-03-28T03:48:51.257Z,0
2023-03-28T03:50:07.391Z,0
2023-03-28T03:51:23.529Z,0
2023-03-28T03:52:39.656Z,0
2023-03-28T03:53:55.798Z,0
2023-03-28T03:55:11.937Z,0
2023-03-28T03:56:28.067Z,0
2023-03-28T03:57:44.204Z,0
2023-03-28T03:59:00.349Z,0
2023-03-28T04:00:16.478Z,0
2023-03-28T04:01:32.603Z,0
2023-03-28T04:02:48.748Z,0
2023-03-28T04:04:04.955Z,0
2023-03-28T04:05:20.160Z,0
2023-03-28T04:06:35.306Z,0
2023-03-28T04:07:51.454Z,0
2023-03-28T04:09:07.585Z,0
2023-03-28T04:10:23.721Z,0
2023-03-28T04:11:39.848Z,0
2023-03-28T04:12:55.989Z,0
2023-03-28T04:14:12.127Z,0
2023-03-28T04:15:28.266Z,0
2023-03-28T04:16:44.402Z,0
2023-03-28T04:18:00.534Z,0
2023-03-28T04:19:16.674Z,0
2023-03-28T04:20:32.812Z,0
2023-03-28T04:21:48.942Z,0
2023-03-28T04:23:05.071Z,0
2023-03-28T04:24:21.210Z,0
2023-03-28T04:25:37.342Z,0
2023-03-28T04:26:53.491Z,0
2023-03-28T04:28:09.623Z,0
2023-03-28T04:29:25.756Z,0
2023-03-28T04:30:41.895Z,0
2023-03-28T04:31:58.032Z,0
2023-03-28T04:33:14.168Z,0
2023-03-28T04:34:30.301Z,0
2023-03-28T04:35:46.435Z,4
2023-03-28T04:37:02.581Z,0
2023-03-28T04:38:18.711Z,4
2023-03-28T04:39:34.858Z,4
2023-03-28T04:40:50.983Z,4
2023-03-28T04:42:07.123Z,4
2023-03-28T04:43:23.249Z,8
2023-03-28T04:44:39.392Z,12
2023-03-28T04:45:55.535Z,12
2023-03-28T04:47:11.659Z,12
2023-03-28T04:48:27.797Z,16
2023-03-28T04:49:43.936Z,20
2023-03-28T04:51:00.069Z,28
2023-03-28T04:52:16.226Z,32
2023-03-28T04:53:32.404Z,32
2023-03-28T04:54:47.620Z,40
2023-03-28T04:56:03.743Z,44
2023-03-28T04:57:19.894Z,52
2023-03-28T04:58:36.032Z,64
2023-03-28T04:59:52.162Z,72
2023-03-28T05:01:08.292Z,84
2023-03-28T05:02:24.422Z,96
2023-03-28T05:03:40.573Z,100
2023-03-28T05:04:56.712Z,116
2023-03-28T05:06:12.832Z,136
2023-03-28T05:07:28.965Z,136
2023-03-28T05:08:45.098Z,148
2023-03-28T05:10:01.243Z,164
2023-03-28T05:11:17.381Z,180
2023-03-28T05:12:33.523Z,192
2023-03-28T05:13:49.648Z,212
2023-03-28T05:15:05.793Z,228
2023-03-28T05:16:21.927Z,248
2023-03-28T05:17:38.062Z,264
2023-03-28T05:18:54.194Z,284
2023-03-28T05:20:10.328Z,300
2023-03-28T05:21:26.469Z,316
2023-03-28T05:22:42.614Z,332
2023-03-28T05:23:58.745Z,360
2023-03-28T05:25:14.888Z,376
2023-03-28T05:26:31.080Z,392
2023-03-28T05:27:46.303Z,408
2023-03-28T05:29:01.519Z,424
2023-03-28T05:30:16.661Z,452
2023-03-28T05:31:32.805Z,476
2023-03-28T05:32:48.941Z,496
2023-03-28T05:34:05.081Z,512
2023-03-28T05:35:21.217Z,536
2023-03-28T05:36:37.356Z,560
2023-03-28T05:37:53.498Z,628
2023-03-28T05:39:09.625Z,604
2023-03-28T05:40:25.761Z,624
2023-03-28T05:41:41.885Z,632
2023-03-28T05:42:58.029Z,660
2023-03-28T05:44:14.181Z,684
2023-03-28T05:45:30.311Z,704
2023-03-28T05:46:46.446Z,744
2023-03-28T05:48:02.572Z,744
2023-03-28T05:49:18.710Z,760
2023-03-28T05:50:34.858Z,840
2023-03-28T05:51:50.988Z,852
2023-03-28T05:53:07.121Z,848
2023-03-28T05:54:23.258Z,876
2023-03-28T05:55:39.386Z,876
2023-03-28T05:56:55.534Z,936
2023-03-28T05:58:11.674Z,936
2023-03-28T05:59:27.797Z,1128
2023-03-28T06:00:43.935Z,1268
2023-03-28T06:02:00.072Z,1292
2023-03-28T06:03:16.211Z,1468
2023-03-28T06:04:32.341Z,2844
2023-03-28T06:05:48.479Z,3092
2023-03-28T06:07:04.618Z,2084
2023-03-28T06:08:20.738Z,2504
2023-03-28T06:09:36.890Z,2364
2023-03-28T06:10:53.016Z,2548
2023-03-28T06:12:09.159Z,1736
2023-03-28T06:13:25.297Z,3000
2023-03-28T06:14:41.428Z,1844
2023-03-28T06:15:57.566Z,2464
2023-03-28T06:17:13.767Z,1552
2023-03-28T06:18:29.020Z,3308
2023-03-28T06:19:44.235Z,2160
2023-03-28T06:21:00.362Z,1876
2023-03-28T06:22:16.490Z,2436
2023-03-28T06:23:32.639Z,1856
2023-03-28T06:24:48.767Z,1348
2023-03-28T06:26:04.903Z,1760
2023-03-28T06:27:21.045Z,1716
2023-03-28T06:28:37.178Z,1708
2023-03-28T06:29:53.304Z,1812
2023-03-28T06:32:25.585Z,3004
2023-03-28T06:33:41.717Z,3768
2023-03-28T06:34:57.864Z,3280
2023-03-28T06:36:14.001Z,2736
2023-03-28T06:37:30.116Z,2464
2023-03-28T06:38:46.282Z,2236
2023-03-28T06:40:02.406Z,2996
2023-03-28T06:41:18.546Z,2320
2023-03-28T06:42:34.673Z,2756
2023-03-28T06:43:50.798Z,3368
2023-03-28T06:45:06.944Z,3816
2023-03-28T06:46:23.085Z,4880
2023-03-28T06:47:39.223Z,4112
2023-03-28T06:48:55.350Z,5548
2023-03-28T06:50:11.491Z,2536
2023-03-28T06:51:27.693Z,2992
2023-03-28T06:52:42.923Z,3308
2023-03-28T06:53:58.141Z,3276
2023-03-28T06:55:14.291Z,2556
2023-03-28T06:56:30.413Z,4872
2023-03-28T06:57:46.547Z,4988
2023-03-28T06:59:02.681Z,2596
2023-03-28T07:00:18.823Z,3200
2023-03-28T07:01:34.962Z,6296
2023-03-28T07:02:51.086Z,2676
2023-03-28T07:04:07.220Z,4108
2023-03-28T07:05:23.362Z,6012
2023-03-28T07:06:39.491Z,4612
2023-03-28T07:07:55.649Z,3876
2023-03-28T07:09:11.767Z,6164
2023-03-28T07:10:27.919Z,4640
2023-03-28T07:11:44.038Z,4352
2023-03-28T07:13:00.181Z,4744
2023-03-28T07:14:16.330Z,4212
2023-03-28T07:15:32.454Z,4688
2023-03-28T07:16:48.592Z,2708
2023-03-28T07:18:04.720Z,3684
2023-03-28T07:19:20.858Z,4852
2023-03-28T07:20:37.001Z,2296
2023-03-28T07:21:53.144Z,2184
2023-03-28T07:23:09.264Z,1496
2023-03-28T07:24:25.398Z,2864
2023-03-28T07:25:41.608Z,3060
2023-03-28T07:26:56.874Z,1836
2023-03-28T07:28:12.105Z,2072
2023-03-28T07:29:27.306Z,1332
2023-03-28T07:30:43.455Z,1300
2023-03-28T07:31:59.584Z,2824
2023-03-28T07:33:15.713Z,2408
2023-03-28T07:34:31.853Z,2124
2023-03-28T07:35:47.991Z,1200
2023-03-28T07:37:04.119Z,1800
2023-03-28T07:38:20.269Z,3360
2023-03-28T07:39:36.401Z,4036
2023-03-28T07:40:52.533Z,2704
2023-03-28T07:42:08.669Z,1984
2023-03-28T07:43:24.819Z,2804
2023-03-28T07:44:40.937Z,6016
2023-03-28T07:45:57.085Z,3812
2023-03-28T07:47:13.210Z,5864
2023-03-28T07:48:29.358Z,5172
2023-03-28T07:49:45.484Z,3436
2023-03-28T07:51:01.620Z,4792
2023-03-28T07:52:17.754Z,3140
2023-03-28T07:53:33.888Z,2660
2023-03-28T07:54:50.037Z,3084
2023-03-28T07:56:06.165Z,2408
2023-03-28T07:57:22.305Z,2812
2023-03-28T07:58:38.441Z,2868
2023-03-28T07:59:54.575Z,2696
2023-03-28T08:01:10.780Z,6268
2023-03-28T08:02:26.014Z,8268
2023-03-28T08:03:41.236Z,4692
2023-03-28T08:04:57.375Z,2692
2023-03-28T08:06:13.506Z,4480
2023-03-28T08:07:29.636Z,3432
2023-03-28T08:08:45.771Z,6292
2023-03-28T08:10:01.898Z,4848
2023-03-28T08:11:18.053Z,8836
2023-03-28T08:12:34.181Z,2924
2023-03-28T08:13:50.327Z,2340
2023-03-28T08:15:06.458Z,3416
2023-03-28T08:16:22.590Z,3960
2023-03-28T08:17:38.740Z,4996
2023-03-28T08:18:54.872Z,8704
2023-03-28T08:20:11.009Z,12892
2023-03-28T08:21:27.143Z,21056
2023-03-28T08:22:43.272Z,8752
2023-03-28T08:23:59.419Z,7636
2023-03-28T08:25:15.555Z,10044
2023-03-28T08:26:31.678Z,40000
2023-03-28T08:27:47.000Z,5132
2023-03-28T08:29:03.947Z,8120
2023-03-28T08:30:20.089Z,5620
2023-03-28T08:31:36.227Z,14892
2023-03-28T08:32:52.362Z,12088
2023-03-28T08:34:08.505Z,6012
2023-03-28T08:35:24.686Z,46400
2023-03-28T08:36:39.924Z,50464
2023-03-28T08:37:55.125Z,8528
2023-03-28T08:39:11.275Z,47840
2023-03-28T08:40:27.422Z,43360
2023-03-28T08:41:43.546Z,11500
2023-03-28T08:42:59.683Z,7240
2023-03-28T08:44:15.812Z,5260
2023-03-28T08:45:31.959Z,73760
2023-03-28T08:46:48.089Z,75552
2023-03-28T08:48:04.227Z,57952
2023-03-28T08:49:20.357Z,34304
2023-03-28T08:50:36.487Z,19072
2023-03-28T08:51:52.624Z,16248
2023-03-28T08:53:08.772Z,16052
2023-03-28T08:54:24.919Z,20992
2023-03-28T08:55:41.051Z,19936
2023-03-28T08:56:57.185Z,10404
2023-03-28T08:58:13.320Z,5888
2023-03-28T08:59:29.466Z,3660
2023-03-28T09:00:45.601Z,5264
2023-03-28T09:02:01.736Z,24000
2023-03-28T09:03:17.860Z,6444
2023-03-28T09:04:33.990Z,3540
2023-03-28T09:05:50.146Z,5028
2023-03-28T09:07:06.271Z,4648
2023-03-28T09:08:22.408Z,6044
2023-03-28T09:09:38.610Z,14240
2023-03-28T09:10:53.833Z,6044
2023-03-28T09:12:09.047Z,6308
2023-03-28T09:13:24.195Z,25024
2023-03-28T09:14:40.352Z,23136
2023-03-28T09:15:56.482Z,17932
2023-03-28T09:17:12.623Z,16208
2023-03-28T09:18:28.745Z,16128
2023-03-28T09:19:44.878Z,17020
2023-03-28T09:21:01.028Z,5108
2023-03-28T09:22:17.160Z,6572
2023-03-28T09:23:33.299Z,8496
2023-03-28T09:24:49.422Z,21888
2023-03-28T09:26:05.570Z,22400
2023-03-28T09:27:21.711Z,22624
2023-03-28T09:28:37.839Z,24640
2023-03-28T09:29:53.985Z,8168
2023-03-28T09:31:10.117Z,6616
2023-03-28T09:32:26.240Z,2796
2023-03-28T09:33:42.398Z,1732
2023-03-28T09:34:58.519Z,1328
2023-03-28T09:36:14.670Z,1524
2023-03-28T09:37:30.801Z,2464
2023-03-28T09:38:46.931Z,4756
2023-03-28T09:40:03.083Z,5976
2023-03-28T09:41:19.215Z,15004
2023-03-28T09:42:35.346Z,19808
2023-03-28T09:43:51.469Z,13212
2023-03-28T09:45:07.601Z,17704
2023-03-28T09:46:23.765Z,22592
2023-03-28T09:47:39.889Z,12736
2023-03-28T09:48:56.019Z,10400
2023-03-28T09:50:12.149Z,11036
2023-03-28T09:51:28.295Z,5004
2023-03-28T09:52:44.440Z,3660
2023-03-28T09:54:00.567Z,3008
2023-03-28T09:55:16.710Z,4056
2023-03-28T09:56:32.832Z,17348
2023-03-28T09:57:48.965Z,16884
2023-03-28T09:59:05.130Z,24384
2023-03-28T10:00:21.319Z,27328
2023-03-28T10:01:36.563Z,9968
2023-03-28T10:02:51.768Z,13168
2023-03-28T10:04:07.891Z,6388
2023-03-28T10:05:24.018Z,6864
2023-03-28T10:06:40.153Z,6312
2023-03-28T10:07:56.289Z,17932
2023-03-28T10:09:12.448Z,16392
2023-03-28T10:10:28.575Z,7368
2023-03-28T10:11:44.702Z,5436
2023-03-28T10:13:00.848Z,5504
2023-03-28T10:14:16.981Z,8144
2023-03-28T10:15:33.123Z,38208
2023-03-28T10:16:49.252Z,38240
2023-03-28T10:18:05.393Z,37856
2023-03-28T10:19:21.523Z,11592
2023-03-28T10:20:37.668Z,6636
2023-03-28T10:21:53.815Z,7640
2023-03-28T10:23:09.947Z,5708
2023-03-28T10:24:26.072Z,5632
2023-03-28T10:25:42.205Z,5124
2023-03-28T10:26:58.333Z,8100
2023-03-28T10:28:14.492Z,8084
2023-03-28T10:29:30.629Z,7968
2023-03-28T10:30:46.761Z,5300
2023-03-28T10:32:02.896Z,3816
2023-03-28T10:33:19.026Z,3776
2023-03-28T10:34:35.225Z,3976
2023-03-28T10:35:50.501Z,3672
2023-03-28T10:37:05.701Z,3336
2023-03-28T10:38:21.840Z,3840
2023-03-28T10:39:37.967Z,5608
2023-03-28T10:40:54.102Z,5120
2023-03-28T10:42:10.233Z,19328
2023-03-28T10:43:26.379Z,6812
2023-03-28T10:44:42.525Z,4376
2023-03-28T10:45:58.659Z,2752
2023-03-28T10:47:14.791Z,1872
2023-03-28T10:48:30.931Z,2368
2023-03-28T10:49:47.000Z,4316
2023-03-28T10:51:03.194Z,7816
2023-03-28T10:52:19.339Z,9728
2023-03-28T10:53:35.470Z,35776
2023-03-28T10:54:51.599Z,30912
2023-03-28T10:56:07.731Z,33216
2023-03-28T10:57:23.894Z,6740
2023-03-28T10:58:40.029Z,4624
2023-03-28T10:59:56.154Z,3556
2023-03-28T11:01:12.281Z,3084
2023-03-28T11:02:28.413Z,3160
2023-03-28T11:03:44.570Z,3368
2023-03-28T11:05:00.692Z,3188
2023-03-28T11:06:16.830Z,3272
2023-03-28T11:07:32.960Z,3552
2023-03-28T11:08:49.160Z,3664
2023-03-28T11:10:04.391Z,3524
2023-03-28T11:11:20.587Z,2804
2023-03-28T11:12:35.805Z,2824
2023-03-28T11:13:51.945Z,4712
2023-03-28T11:15:08.074Z,5844
2023-03-28T11:16:24.213Z,6000
2023-03-28T11:17:40.345Z,6548
2023-03-28T11:18:56.474Z,11120
2023-03-28T11:20:12.619Z,8288
2023-03-28T11:21:28.754Z,6428
2023-03-28T11:22:44.881Z,4868
2023-03-28T11:24:01.015Z,4808
2023-03-28T11:25:17.147Z,11156
2023-03-28T11:26:33.304Z,8344
2023-03-28T11:27:49.442Z,8220
2023-03-28T11:29:05.567Z,9292
2023-03-28T11:30:21.698Z,6780
2023-03-28T11:31:37.831Z,8356
2023-03-28T11:32:53.993Z,15284
2023-03-28T11:34:10.115Z,12556
2023-03-28T11:35:26.248Z,32352
2023-03-28T11:36:42.392Z,17408
2023-03-28T11:37:58.515Z,18856
2023-03-28T11:39:14.676Z,9480
2023-03-28T11:40:30.811Z,11620
2023-03-28T11:41:46.000Z,7280
2023-03-28T11:43:03.078Z,6576
2023-03-28T11:44:19.261Z,5352
2023-03-28T11:45:34.498Z,3996
2023-03-28T11:46:49.716Z,4748
2023-03-28T11:48:05.845Z,4352
2023-03-28T11:49:21.983Z,3048
2023-03-28T11:50:38.119Z,2760
2023-03-28T11:51:54.262Z,3676
2023-03-28T11:53:10.396Z,3720
2023-03-28T11:54:26.529Z,3340
2023-03-28T11:55:42.668Z,3812
2023-03-28T11:56:58.811Z,4628
2023-03-28T11:58:14.948Z,4740
2023-03-28T11:59:31.074Z,4660
2023-03-28T12:00:47.212Z,5056
2023-03-28T12:02:03.347Z,5988
2023-03-28T12:03:19.485Z,6432
2023-03-28T12:04:35.615Z,6456
2023-03-28T12:05:51.746Z,6132
2023-03-28T12:07:07.880Z,5952
2023-03-28T12:08:24.035Z,6452
2023-03-28T12:09:40.167Z,7408
2023-03-28T12:10:56.296Z,7500
2023-03-28T12:12:12.428Z,7492
2023-03-28T12:13:28.573Z,7200
2023-03-28T12:14:44.725Z,7120
2023-03-28T12:16:00.840Z,6616
2023-03-28T12:17:16.977Z,5712
2023-03-28T12:18:33.178Z,5144
2023-03-28T12:19:48.411Z,4340
2023-03-28T12:21:03.623Z,4108
2023-03-28T12:22:18.768Z,3744
2023-03-28T12:23:34.911Z,3052
2023-03-28T12:24:51.061Z,2388
2023-03-28T12:26:07.181Z,2092
2023-03-28T12:27:23.315Z,2532
2023-03-28T12:28:39.455Z,2828
2023-03-28T12:29:55.600Z,2884
2023-03-28T12:31:11.736Z,2804
2023-03-28T12:32:27.860Z,2496
2023-03-28T12:33:44.006Z,2372
2023-03-28T12:35:00.130Z,2572
2023-03-28T12:36:16.287Z,3024
2023-03-28T12:37:32.417Z,3084
2023-03-28T12:38:48.549Z,3084
2023-03-28T12:40:04.688Z,3624
2023-03-28T12:41:20.805Z,3940
2023-03-28T12:42:36.955Z,4436
2023-03-28T12:43:53.086Z,6008
2023-03-28T12:45:09.220Z,6740
2023-03-28T12:46:25.370Z,6888
2023-03-28T12:47:41.488Z,7068
2023-03-28T12:48:57.648Z,7136
2023-03-28T12:50:13.771Z,7160
2023-03-28T12:51:29.915Z,7588
2023-03-28T12:52:46.049Z,6764
2023-03-28T12:54:02.173Z,5788
2023-03-28T12:55:18.319Z,5056
2023-03-28T12:56:34.456Z,4972
2023-03-28T12:57:50.590Z,5184
2023-03-28T12:59:06.727Z,5616
2023-03-28T13:00:22.860Z,5692
2023-03-28T13:01:39.019Z,5756
2023-03-28T13:02:55.136Z,5504
2023-03-28T13:04:11.282Z,5104
2023-03-28T13:05:27.406Z,4868
2023-03-28T13:06:43.537Z,4884
2023-03-28T13:07:59.686Z,4956
2023-03-28T13:09:15.888Z,5104
2023-03-28T13:10:31.128Z,4536
2023-03-28T13:11:46.340Z,4404
2023-03-28T13:13:02.466Z,3956
2023-03-28T13:14:18.603Z,3144
2023-03-28T13:15:34.742Z,3192
2023-03-28T13:16:50.861Z,3144
2023-03-28T13:18:07.020Z,3276
2023-03-28T13:19:23.148Z,3556
2023-03-28T13:20:39.284Z,3976
2023-03-28T13:21:55.415Z,3948
2023-03-28T13:23:11.544Z,4316
2023-03-28T13:24:27.690Z,4636
2023-03-28T13:25:43.837Z,4416
2023-03-28T13:26:59.970Z,4552
2023-03-28T13:28:16.108Z,3936
2023-03-28T13:29:32.243Z,3572
2023-03-28T13:30:48.378Z,3140
2023-03-28T13:32:04.514Z,3172
2023-03-28T13:33:20.657Z,3368
2023-03-28T13:34:36.792Z,2744
2023-03-28T13:35:52.919Z,2032
2023-03-28T13:37:09.075Z,1568
2023-03-28T13:38:25.203Z,1436
2023-03-28T13:39:41.330Z,1368
2023-03-28T13:40:57.476Z,1472
2023-03-28T13:42:13.600Z,1400
2023-03-28T13:43:29.797Z,1176
2023-03-28T13:44:45.053Z,1128
2023-03-28T13:46:01.244Z,1308
2023-03-28T13:47:16.439Z,1432
2023-03-28T13:48:32.587Z,1492
2023-03-28T13:49:48.716Z,1728
2023-03-28T13:51:04.841Z,1944
2023-03-28T13:52:20.979Z,2288
2023-03-28T13:53:37.119Z,2796
2023-03-28T13:54:53.260Z,3652
2023-03-28T13:56:09.401Z,4272
2023-03-28T13:57:25.519Z,4276
2023-03-28T13:58:41.666Z,3984
2023-03-28T13:59:57.807Z,3536
2023-03-28T14:01:13.939Z,3396
2023-03-28T14:02:30.079Z,3504
2023-03-28T14:03:46.200Z,3420
2023-03-28T14:05:02.339Z,3332
2023-03-28T14:06:18.484Z,3480
2023-03-28T14:07:34.629Z,3520
2023-03-28T14:08:50.745Z,3444
2023-03-28T14:10:06.887Z,3604
2023-03-28T14:11:23.028Z,3792
2023-03-28T14:12:39.159Z,3936
2023-03-28T14:13:55.297Z,3908
2023-03-28T14:15:11.435Z,3548
2023-03-28T14:16:27.560Z,4144
2023-03-28T14:17:43.692Z,4180
2023-03-28T14:18:59.903Z,4044
2023-03-28T14:20:15.145Z,3764
2023-03-28T14:21:30.363Z,3568
2023-03-28T14:22:46.490Z,3264
2023-03-28T14:24:02.636Z,3248
2023-03-28T14:25:18.765Z,3268
2023-03-28T14:26:34.904Z,3320
2023-03-28T14:27:51.023Z,3468
2023-03-28T14:29:07.171Z,3820
2023-03-28T14:30:23.305Z,4016
2023-03-28T14:31:39.449Z,3672
2023-03-28T14:32:55.582Z,3612
2023-03-28T14:34:11.719Z,3620
2023-03-28T14:35:27.855Z,3652
2023-03-28T14:36:43.988Z,3408
2023-03-28T14:38:00.134Z,3364
2023-03-28T14:39:16.254Z,3268
2023-03-28T14:40:32.395Z,3124
2023-03-28T14:41:48.550Z,3028
2023-03-28T14:43:04.680Z,3048
2023-03-28T14:44:20.802Z,3384
2023-03-28T14:45:36.935Z,3720
2023-03-28T14:46:53.072Z,3684
2023-03-28T14:48:09.227Z,3584
2023-03-28T14:49:25.355Z,3464
2023-03-28T14:50:41.498Z,3304
2023-03-28T14:51:57.624Z,3136
2023-03-28T14:53:13.818Z,2956
2023-03-28T14:54:29.080Z,2864
2023-03-28T14:55:44.271Z,2772
2023-03-28T14:57:00.424Z,2560
2023-03-28T14:58:16.558Z,2364
2023-03-28T14:59:32.688Z,2332
2023-03-28T15:00:48.835Z,2372
2023-03-28T15:02:04.964Z,2396
2023-03-28T15:03:21.102Z,2392
2023-03-28T15:04:37.242Z,2420
2023-03-28T15:05:53.373Z,2548
2023-03-28T15:07:09.506Z,2612
2023-03-28T15:08:25.634Z,2640
2023-03-28T15:09:41.769Z,2684
2023-03-28T15:10:57.919Z,2796
2023-03-28T15:12:14.057Z,2820
2023-03-28T15:13:30.186Z,2788
2023-03-28T15:14:46.314Z,2672
2023-03-28T15:16:02.458Z,2676
2023-03-28T15:17:18.597Z,2556
2023-03-28T15:18:34.746Z,2376
2023-03-28T15:19:50.873Z,2144
2023-03-28T15:21:07.006Z,2104
2023-03-28T15:22:23.141Z,2092
2023-03-28T15:23:39.275Z,2036
2023-03-28T15:24:55.416Z,2052
2023-03-28T15:26:11.547Z,2156
2023-03-28T15:27:27.752Z,2252
2023-03-28T15:28:42.988Z,2228
2023-03-28T15:29:59.169Z,2220
2023-03-28T15:31:14.382Z,2276
2023-03-28T15:32:30.522Z,2228
2023-03-28T15:33:46.665Z,2092
2023-03-28T15:35:02.805Z,1936
2023-03-28T15:36:18.925Z,1900
2023-03-28T15:37:35.060Z,1880
2023-03-28T15:38:51.197Z,1856
2023-03-28T15:40:07.350Z,1784
2023-03-28T15:41:23.473Z,1652
2023-03-28T15:42:39.615Z,1576
2023-03-28T15:43:55.743Z,1516
2023-03-28T15:45:11.875Z,1436
2023-03-28T15:46:28.015Z,1408
2023-03-28T15:47:44.156Z,1348
2023-03-28T15:49:00.291Z,1320
2023-03-28T15:50:16.414Z,1276
2023-03-28T15:51:32.554Z,1292
2023-03-28T15:52:48.697Z,1304
2023-03-28T15:54:04.840Z,1264
2023-03-28T15:55:20.963Z,1216
2023-03-28T15:56:37.095Z,1180
2023-03-28T15:57:53.239Z,1144
2023-03-28T15:59:09.377Z,1116
2023-03-28T16:00:25.510Z,1092
2023-03-28T16:01:41.644Z,1064
2023-03-28T16:02:57.831Z,1028
2023-03-28T16:04:13.070Z,1008
2023-03-28T16:05:28.287Z,1020
2023-03-28T16:06:43.434Z,1044
2023-03-28T16:07:59.589Z,1080
2023-03-28T16:09:15.712Z,1132
2023-03-28T16:10:31.840Z,1220
2023-03-28T16:11:47.979Z,1284
2023-03-28T16:13:04.104Z,1268
2023-03-28T16:14:20.265Z,1280
2023-03-28T16:15:36.386Z,1308
2023-03-28T16:16:52.524Z,1308
2023-03-28T16:18:08.669Z,1292
2023-03-28T16:19:24.800Z,1264
2023-03-28T16:20:40.939Z,1260
2023-03-28T16:21:57.076Z,1244
2023-03-28T16:23:13.212Z,1228
2023-03-28T16:24:29.334Z,1232
2023-03-28T16:25:45.466Z,1220
2023-03-28T16:27:01.628Z,1204
2023-03-28T16:28:17.750Z,1176
2023-03-28T16:29:33.880Z,1144
2023-03-28T16:30:50.029Z,1160
2023-03-28T16:32:06.147Z,1180
2023-03-28T16:33:22.299Z,1172
2023-03-28T16:34:38.436Z,1152
2023-03-28T16:35:54.570Z,1128
2023-03-28T16:37:10.705Z,1120
2023-03-28T16:38:26.832Z,1116
2023-03-28T16:39:42.975Z,1092
2023-03-28T16:40:59.113Z,1056
2023-03-28T16:42:15.242Z,1000
2023-03-28T16:43:31.389Z,932
2023-03-28T16:44:47.527Z,876
2023-03-28T16:46:03.670Z,824
2023-03-28T16:47:19.799Z,768
2023-03-28T16:48:35.930Z,708
2023-03-28T16:49:52.072Z,668
2023-03-28T16:51:08.203Z,648
2023-03-28T16:52:24.355Z,632
2023-03-28T16:53:40.534Z,620
2023-03-28T16:54:55.782Z,616
2023-03-28T16:56:10.991Z,608
2023-03-28T16:57:27.110Z,604
2023-03-28T16:58:43.252Z,584
2023-03-28T16:59:59.391Z,556
2023-03-28T17:01:15.525Z,528
2023-03-28T17:02:31.672Z,496
2023-03-28T17:03:47.809Z,472
2023-03-28T17:05:03.927Z,452
2023-03-28T17:06:20.069Z,436
2023-03-28T17:07:36.203Z,424
2023-03-28T17:08:52.356Z,420
2023-03-28T17:10:08.482Z,412
2023-03-28T17:11:24.609Z,400
2023-03-28T17:12:40.747Z,384
2023-03-28T17:13:56.890Z,368
2023-03-28T17:15:13.024Z,344
2023-03-28T17:16:29.155Z,320
2023-03-28T17:17:45.300Z,304
2023-03-28T17:19:01.432Z,284
2023-03-28T17:20:17.572Z,264
2023-03-28T17:21:33.719Z,248
2023-03-28T17:22:49.847Z,228
2023-03-28T17:24:05.968Z,216
2023-03-28T17:25:22.121Z,192